createdAt,value
2023-02-26T00:00:25.131Z,85.98
2023-02-26T00:05:27.104Z,85.32
2023-02-26T00:10:29.485Z,85.42
2023-02-26T00:15:31.947Z,85.48
2023-02-26T00:20:36.962Z,85.62
2023-02-26T00:25:39.019Z,85.95
2023-02-26T00:30:41.519Z,85.68
2023-02-26T00:35:44.858Z,85.55
2023-02-26T00:40:54.173Z,85.31
2023-02-26T00:46:03.523Z,85.72
2023-02-26T00:51:44.693Z,85.35
2023-02-26T00:56:49.624Z,85.20
2023-02-26T01:01:53.791Z,85.50
2023-02-26T01:06:57.835Z,85.51
2023-02-26T01:12:05.437Z,85.67
2023-02-26T01:17:25.525Z,85.61
2023-02-26T01:22:52.867Z,85.34
2023-02-26T01:27:57.882Z,85.39
2023-02-26T01:33:13.625Z,85.41
2023-02-26T01:38:53.529Z,84.71
2023-02-26T01:44:24.877Z,84.66
2023-02-26T01:49:28.538Z,84.81
2023-02-26T01:54:39.968Z,85.38
2023-02-26T01:59:45.425Z,85.46
2023-02-26T02:04:49.417Z,84.91
2023-02-26T02:09:52.146Z,85.78
2023-02-26T02:15:37.697Z,85.88
2023-02-26T02:20:52.022Z,86.72
2023-02-26T02:26:20.504Z,86.59
2023-02-26T02:31:31.934Z,86.92
2023-02-26T02:36:47.697Z,86.70
2023-02-26T02:41:59.490Z,87.16
2023-02-26T02:47:06.275Z,86.98
2023-02-26T02:52:28.722Z,86.26
2023-02-26T02:57:42.317Z,85.63
2023-02-26T03:03:28.030Z,84.64
2023-02-26T03:08:54.206Z,83.51
2023-02-26T03:13:57.819Z,83.54
2023-02-26T03:19:06.850Z,83.87
2023-02-26T03:24:37.715Z,84.29
2023-02-26T03:30:06.176Z,84.46
2023-02-26T03:35:16.911Z,83.80
2023-02-26T03:40:30.408Z,83.54
2023-02-26T03:45:38.782Z,83.48
2023-02-26T03:50:46.676Z,84.25
2023-02-26T03:56:18.382Z,83.94
2023-02-26T04:01:55.182Z,83.48
2023-02-26T04:06:58.889Z,83.85
2023-02-26T04:12:01.613Z,83.17
2023-02-26T04:17:05.621Z,83.53
2023-02-26T04:22:10.209Z,84.42
2023-02-26T04:27:13.792Z,85.04
2023-02-26T04:32:39.815Z,84.58
2023-02-26T04:37:43.339Z,84.79
2023-02-26T04:42:47.645Z,84.53
2023-02-26T04:47:59.990Z,85.10
2023-02-26T04:53:08.040Z,84.86
2023-02-26T04:58:12.132Z,84.90
2023-02-26T05:03:17.911Z,84.60
2023-02-26T05:08:20.293Z,83.86
2023-02-26T05:13:22.948Z,83.75
2023-02-26T05:18:27.262Z,83.87
2023-02-26T05:23:30.857Z,83.10
2023-02-26T05:28:36.829Z,83.23
2023-02-26T05:33:38.852Z,83.50
2023-02-26T05:38:43.333Z,82.86
2023-02-26T05:43:47.857Z,83.65
2023-02-26T05:48:52.304Z,84.22
2023-02-26T05:53:54.911Z,84.69
2023-02-26T05:58:57.599Z,84.82
2023-02-26T06:04:01.189Z,84.06
2023-02-26T06:09:06.596Z,84.09
2023-02-26T06:14:11.662Z,84.14
2023-02-26T06:19:14.360Z,84.85
2023-02-26T06:24:18.262Z,84.86
2023-02-26T06:29:21.969Z,84.14
2023-02-26T06:34:24.114Z,84.28
2023-02-26T06:39:31.775Z,84.69
2023-02-26T06:44:35.449Z,84.22
2023-02-26T06:49:38.771Z,84.69
2023-02-26T06:54:43.806Z,84.79
2023-02-26T06:59:47.908Z,84.58
2023-02-26T07:04:51.586Z,84.79
2023-02-26T07:09:53.756Z,85.57
2023-02-26T07:15:01.820Z,84.97
2023-02-26T07:20:11.467Z,84.33
2023-02-26T07:25:14.354Z,84.61
2023-02-26T07:30:20.020Z,84.72
2023-02-26T07:35:22.564Z,84.43
2023-02-26T07:40:27.517Z,83.20
2023-02-26T07:45:31.765Z,82.74
2023-02-26T07:50:33.905Z,83.58
2023-02-26T07:55:36.657Z,83.21
2023-02-26T08:00:39.824Z,82.92
2023-02-26T08:05:41.830Z,80.81
2023-02-26T08:10:44.945Z,80.67
2023-02-26T08:15:48.593Z,80.17
2023-02-26T08:21:13.781Z,80.28
2023-02-26T08:26:16.542Z,79.28
2023-02-26T08:31:19.142Z,78.93
2023-02-26T08:36:25.052Z,77.02
2023-02-26T08:41:36.836Z,77.79
2023-02-26T08:46:39.563Z,78.77
2023-02-26T08:51:42.283Z,78.19
2023-02-26T08:56:44.417Z,77.27
2023-02-26T09:01:47.221Z,76.11
2023-02-26T09:06:52.633Z,74.12
2023-02-26T09:11:54.826Z,73.06
2023-02-26T09:16:57.005Z,71.54
2023-02-26T09:21:59.898Z,71.02
2023-02-26T09:27:03.703Z,69.80
2023-02-26T09:32:08.526Z,67.72
2023-02-26T09:37:10.910Z,69.23
2023-02-26T09:42:32.061Z,68.63
2023-02-26T09:47:41.901Z,69.68
2023-02-26T09:52:54.181Z,70.16
2023-02-26T09:58:00.955Z,70.13
2023-02-26T10:03:30.044Z,70.55
2023-02-26T10:08:45.566Z,70.80
2023-02-26T10:14:31.293Z,72.46
2023-02-26T10:19:40.864Z,72.61
2023-02-26T10:24:49.306Z,71.78
2023-02-26T10:30:08.082Z,73.49
2023-02-26T10:35:19.491Z,74.49
2023-02-26T10:41:14.365Z,74.61
2023-02-26T10:46:42.899Z,75.96
2023-02-26T10:51:47.214Z,76.79
2023-02-26T10:56:52.647Z,77.33
2023-02-26T11:01:55.633Z,78.10
2023-02-26T11:07:02.413Z,77.11
2023-02-26T11:12:18.126Z,76.97
2023-02-26T11:17:27.876Z,75.17
2023-02-26T11:22:34.350Z,75.33
2023-02-26T11:27:38.728Z,73.67
2023-02-26T11:32:41.883Z,73.75
2023-02-26T11:37:49.977Z,73.45
2023-02-26T11:43:08.880Z,72.04
2023-02-26T11:48:21.305Z,72.23
2023-02-26T11:53:42.103Z,71.37
2023-02-26T11:58:47.556Z,70.84
2023-02-26T12:03:51.412Z,71.85
2023-02-26T12:09:00.658Z,69.96
2023-02-26T12:14:26.160Z,70.74
2023-02-26T12:19:54.138Z,70.56
2023-02-26T12:25:59.457Z,72.26
2023-02-26T12:31:56.922Z,73.16
2023-02-26T12:37:32.880Z,72.43
2023-02-26T12:43:05.156Z,73.57
2023-02-26T12:48:35.945Z,74.93
2023-02-26T12:54:04.878Z,75.22
2023-02-26T12:59:44.748Z,75.94
2023-02-26T13:05:15.435Z,76.22
2023-02-26T13:10:35.531Z,76.69
2023-02-26T13:16:16.000Z,76.48
2023-02-26T13:21:18.933Z,74.73
2023-02-26T13:26:26.820Z,73.96
2023-02-26T13:31:45.463Z,74.46
2023-02-26T13:36:53.406Z,74.06
2023-02-26T13:42:16.913Z,74.50
2023-02-26T13:47:46.428Z,73.37
2023-02-26T13:53:21.070Z,74.86
2023-02-26T13:58:24.050Z,75.58
2023-02-26T14:03:32.831Z,75.09
2023-02-26T14:08:57.937Z,75.68
2023-02-26T14:14:26.651Z,76.55
2023-02-26T14:19:33.549Z,75.76
2023-02-26T14:24:44.531Z,76.04
2023-02-26T14:30:10.531Z,73.64
2023-02-26T14:35:43.762Z,74.41
2023-02-26T14:40:59.350Z,73.52
2023-02-26T14:46:05.051Z,73.93
2023-02-26T14:51:54.955Z,74.70
2023-02-26T14:57:29.032Z,76.86
2023-02-26T15:02:43.348Z,77.35
2023-02-26T15:08:16.982Z,75.96
2023-02-26T15:13:44.286Z,75.32
2023-02-26T15:19:10.268Z,76.21
2023-02-26T15:24:18.555Z,75.89
2023-02-26T15:29:30.297Z,75.80
2023-02-26T15:34:34.305Z,75.40
2023-02-26T15:39:36.378Z,74.65
2023-02-26T15:44:47.942Z,75.83
2023-02-26T15:49:59.014Z,76.07
2023-02-26T15:55:07.603Z,75.42
2023-02-26T16:00:25.977Z,75.85
2023-02-26T16:05:29.598Z,77.83
2023-02-26T16:10:49.688Z,77.44
2023-02-26T16:15:52.319Z,80.08
2023-02-26T16:21:01.280Z,79.96
2023-02-26T16:26:09.798Z,79.39
2023-02-26T16:31:49.227Z,80.48
2023-02-26T16:36:55.742Z,80.21
2023-02-26T16:42:14.338Z,79.45
2023-02-26T16:47:18.592Z,77.21
2023-02-26T16:52:25.773Z,75.19
2023-02-26T16:57:36.670Z,74.48
2023-02-26T17:02:39.216Z,75.14
2023-02-26T17:07:56.522Z,78.23
2023-02-26T17:13:27.923Z,75.18
2023-02-26T17:18:31.739Z,77.03
2023-02-26T17:23:37.927Z,76.84
2023-02-26T17:28:42.877Z,75.60
2023-02-26T17:33:45.373Z,79.30
2023-02-26T17:38:51.326Z,81.24
2023-02-26T17:43:55.288Z,79.81
2023-02-26T17:48:59.263Z,81.56
2023-02-26T17:54:01.577Z,81.97
2023-02-26T17:59:09.808Z,77.33
2023-02-26T18:04:14.312Z,75.05
2023-02-26T18:09:16.887Z,78.91
2023-02-26T18:14:22.444Z,80.74
2023-02-26T18:19:24.783Z,81.99
2023-02-26T18:24:32.348Z,82.67
2023-02-26T18:29:40.099Z,82.95
2023-02-26T18:34:51.919Z,83.22
2023-02-26T18:39:57.796Z,82.51
2023-02-26T18:45:00.513Z,83.11
2023-02-26T18:50:06.145Z,83.50
2023-02-26T18:55:14.923Z,83.22
2023-02-26T19:00:18.932Z,83.18
2023-02-26T19:05:24.610Z,83.11
2023-02-26T19:10:31.743Z,83.63
2023-02-26T19:15:34.856Z,84.12
2023-02-26T19:20:37.864Z,83.93
2023-02-26T19:25:42.590Z,84.26
2023-02-26T19:30:46.072Z,83.68
2023-02-26T19:35:48.503Z,83.17
2023-02-26T19:40:51.262Z,83.60
2023-02-26T19:45:56.755Z,83.37
2023-02-26T19:50:59.826Z,83.64
2023-02-26T19:56:04.998Z,83.11
2023-02-26T20:01:07.659Z,83.48
2023-02-26T20:06:12.811Z,84.13
2023-02-26T20:11:15.410Z,84.31
2023-02-26T20:16:17.583Z,85.19
2023-02-26T20:21:22.308Z,84.59
2023-02-26T20:26:27.804Z,83.93
2023-02-26T20:31:31.488Z,83.87
2023-02-26T20:37:40.579Z,84.48
2023-02-26T20:42:44.526Z,85.04
2023-02-26T20:47:46.606Z,85.39
2023-02-26T20:52:51.540Z,85.55
2023-02-26T20:57:55.180Z,85.60
2023-02-26T21:02:58.340Z,85.52
2023-02-26T21:08:04.300Z,85.36
2023-02-26T21:13:08.546Z,85.78
2023-02-26T21:18:11.214Z,85.62
2023-02-26T21:23:14.263Z,85.52
2023-02-26T21:28:16.515Z,84.74
2023-02-26T21:33:19.995Z,83.67
2023-02-26T21:38:22.221Z,82.96
2023-02-26T21:43:26.061Z,81.48
2023-02-26T21:48:28.228Z,80.63
2023-02-26T21:53:30.945Z,80.22
2023-02-26T21:58:33.342Z,80.05
2023-02-26T22:03:36.515Z,79.72
2023-02-26T22:08:39.028Z,79.49
2023-02-26T22:13:51.542Z,80.82
2023-02-26T22:18:53.525Z,81.18
2023-02-26T22:23:55.880Z,80.48
2023-02-26T22:29:00.779Z,80.12
2023-02-26T22:34:02.877Z,79.97
2023-02-26T22:39:06.527Z,80.32
2023-02-26T22:44:08.755Z,80.72
2023-02-26T22:49:11.493Z,80.22
2023-02-26T22:54:13.772Z,80.65
2023-02-26T22:59:16.510Z,81.17
2023-02-26T23:04:19.830Z,80.99
2023-02-26T23:09:24.710Z,80.88
2023-02-26T23:14:27.358Z,79.85
2023-02-26T23:19:29.769Z,79.92
2023-02-26T23:24:32.423Z,79.27
2023-02-26T23:29:34.975Z,80.72
2023-02-26T23:34:37.346Z,80.33
2023-02-26T23:39:39.407Z,80.30
2023-02-26T23:44:42.302Z,81.47
2023-02-26T23:49:44.287Z,81.29
2023-02-26T23:54:46.178Z,80.64
2023-02-26T23:59:48.111Z,80.82
